createdAt,value
2017-10-01T00:00:50.937Z,100728.27
2017-10-01T00:01:57.123Z,100724.24
2017-10-01T00:03:04.265Z,100727.05
2017-10-01T00:04:10.768Z,100732.88
2017-10-01T00:05:17.697Z,100723.32
2017-10-01T00:06:24.049Z,100728.20
2017-10-01T00:07:30.199Z,100732.41
2017-10-01T00:08:36.392Z,100728.42
2017-10-01T00:09:42.609Z,100730.27
2017-10-01T00:10:49.068Z,100734.52
2017-10-01T00:11:57.928Z,100731.43
2017-10-01T00:13:04.064Z,100732.98
2017-10-01T00:14:09.883Z,100731.97
2017-10-01T00:15:16.924Z,100735.72
2017-10-01T00:16:23.062Z,100734.41
2017-10-01T00:17:29.179Z,100737.19
2017-10-01T00:18:35.822Z,100738.36
2017-10-01T00:19:42.920Z,100735.46
2017-10-01T00:20:49.193Z,100746.11
2017-10-01T00:21:56.142Z,100735.76
2017-10-01T00:23:02.298Z,100735.92
2017-10-01T00:24:09.631Z,100741.78
2017-10-01T00:25:16.179Z,100734.02
2017-10-01T00:26:22.693Z,100741.75
2017-10-01T00:27:28.873Z,100735.84
2017-10-01T00:28:35.113Z,100742.80
2017-10-01T00:29:41.747Z,100743.48
2017-10-01T00:30:47.956Z,100743.46
2017-10-01T00:31:54.151Z,100750.42
2017-10-01T00:33:00.298Z,100748.34
2017-10-01T00:34:07.368Z,100747.70
2017-10-01T00:35:13.835Z,100751.93
2017-10-01T00:36:20.670Z,100752.30
2017-10-01T00:37:26.655Z,100754.23
2017-10-01T00:38:32.425Z,100757.70
2017-10-01T00:39:38.638Z,100746.69
2017-10-01T00:40:44.417Z,100756.55
2017-10-01T00:41:50.631Z,100756.85
2017-10-01T00:43:01.332Z,100756.14
2017-10-01T00:44:07.439Z,100749.98
2017-10-01T00:45:13.987Z,100758.14
2017-10-01T00:46:20.515Z,100753.59
2017-10-01T00:47:27.572Z,100754.64
2017-10-01T00:48:33.319Z,100751.45
2017-10-01T00:49:39.118Z,100753.07
2017-10-01T00:50:45.342Z,100750.44
2017-10-01T00:51:54.467Z,100750.09
2017-10-01T00:53:00.600Z,100751.07
2017-10-01T00:54:06.851Z,100751.34
2017-10-01T00:55:12.306Z,100755.01
2017-10-01T00:56:17.540Z,100761.81
2017-10-01T00:57:23.659Z,100754.91
2017-10-01T00:58:29.556Z,100755.65
2017-10-01T00:59:36.798Z,100760.55
2017-10-01T01:00:44.633Z,100757.94
2017-10-01T01:01:49.360Z,100758.48
2017-10-01T01:02:56.716Z,100753.98
2017-10-01T01:04:03.426Z,100755.80
2017-10-01T01:05:10.234Z,100750.92
2017-10-01T01:06:16.246Z,100747.19
2017-10-01T01:07:22.203Z,100747.50
2017-10-01T01:08:29.277Z,100754.72
2017-10-01T01:09:35.809Z,100748.63
2017-10-01T01:10:41.309Z,100753.28
2017-10-01T01:11:47.368Z,100752.36
2017-10-01T01:12:53.337Z,100756.25
2017-10-01T01:13:59.444Z,100759.22
2017-10-01T01:15:05.002Z,100765.42
2017-10-01T01:16:12.079Z,100760.81
2017-10-01T01:17:17.884Z,100763.88
2017-10-01T01:18:23.295Z,100762.32
2017-10-01T01:19:28.771Z,100762.72
2017-10-01T01:20:34.162Z,100764.38
2017-10-01T01:21:41.142Z,100763.21
2017-10-01T01:22:49.646Z,100769.22
2017-10-01T01:23:55.410Z,100763.09
2017-10-01T01:25:05.128Z,100768.56
2017-10-01T01:26:10.905Z,100770.44
2017-10-01T01:27:17.151Z,100769.39
2017-10-01T01:28:22.544Z,100762.46
2017-10-01T01:29:28.027Z,100769.61
2017-10-01T01:30:33.428Z,100767.09
2017-10-01T01:31:40.456Z,100768.47
2017-10-01T01:32:46.831Z,100771.23
2017-10-01T01:33:52.243Z,100770.53
2017-10-01T01:34:58.355Z,100777.09
2017-10-01T01:36:04.108Z,100776.23
2017-10-01T01:37:09.905Z,100776.78
2017-10-01T01:38:16.109Z,100777.65
2017-10-01T01:39:22.840Z,100781.88
2017-10-01T01:40:28.098Z,100785.89
2017-10-01T01:41:33.567Z,100774.21
2017-10-01T01:42:40.019Z,100780.09
2017-10-01T01:43:45.302Z,100788.56
2017-10-01T01:44:50.776Z,100783.48
2017-10-01T01:45:57.588Z,100784.91
2017-10-01T01:47:03.250Z,100784.63
2017-10-01T01:48:10.490Z,100789.52
2017-10-01T01:49:17.074Z,100790.58
2017-10-01T01:50:22.401Z,100791.99
2017-10-01T01:51:27.826Z,100790.52
2017-10-01T01:52:34.469Z,100786.42
2017-10-01T01:53:40.834Z,100789.23
2017-10-01T01:54:46.067Z,100790.98
2017-10-01T01:55:51.416Z,100795.52
2017-10-01T01:56:57.179Z,100794.55
2017-10-01T01:58:02.420Z,100797.58
2017-10-01T01:59:07.625Z,100794.66
2017-10-01T02:00:12.956Z,100799.14
2017-10-01T02:01:18.227Z,100799.69
2017-10-01T02:02:23.672Z,100810.52
2017-10-01T02:03:29.067Z,100808.52
2017-10-01T02:04:35.528Z,100806.33
2017-10-01T02:05:41.755Z,100811.23
2017-10-01T02:06:47.557Z,100808.27
2017-10-01T02:07:52.975Z,100807.95
2017-10-01T02:08:58.520Z,100809.96
2017-10-01T02:10:04.000Z,100812.94
2017-10-01T02:11:09.641Z,100810.30
2017-10-01T02:12:14.911Z,100813.17
2017-10-01T02:13:20.147Z,100812.78
2017-10-01T02:14:25.662Z,100814.19
2017-10-01T02:15:31.178Z,100816.08
2017-10-01T02:16:36.605Z,100817.72
2017-10-01T02:17:42.013Z,100816.00
2017-10-01T02:18:48.124Z,100821.23
2017-10-01T02:19:54.089Z,100824.78
2017-10-01T02:21:00.589Z,100822.83
2017-10-01T02:22:06.735Z,100827.30
2017-10-01T02:23:12.512Z,100824.45
2017-10-01T02:24:19.024Z,100828.45
2017-10-01T02:25:25.221Z,100829.34
2017-10-01T02:26:31.418Z,100833.30
2017-10-01T02:27:37.218Z,100831.83
2017-10-01T02:28:42.655Z,100834.31
2017-10-01T02:29:48.062Z,100834.61
2017-10-01T02:30:53.505Z,100839.16
2017-10-01T02:31:58.975Z,100840.17
2017-10-01T02:33:04.488Z,100843.28
2017-10-01T02:34:09.944Z,100835.45
2017-10-01T02:35:16.862Z,100836.28
2017-10-01T02:36:22.935Z,100838.65
2017-10-01T02:37:28.358Z,100841.51
2017-10-01T02:38:33.856Z,100842.85
2017-10-01T02:39:40.216Z,100840.44
2017-10-01T02:40:45.664Z,100843.16
2017-10-01T02:41:51.424Z,100845.55
2017-10-01T02:42:57.124Z,100843.44
2017-10-01T02:44:02.776Z,100844.17
2017-10-01T02:45:08.239Z,100843.69
2017-10-01T02:46:13.741Z,100848.59
2017-10-01T02:47:19.576Z,100850.14
2017-10-01T02:48:25.085Z,100852.20
2017-10-01T02:49:30.341Z,100855.76
2017-10-01T02:50:36.760Z,100854.44
2017-10-01T02:51:42.753Z,100855.13
2017-10-01T02:52:48.923Z,100861.48
2017-10-01T02:53:54.364Z,100855.59
2017-10-01T02:55:00.192Z,100859.02
2017-10-01T02:56:06.727Z,100858.99
2017-10-01T02:57:12.953Z,100856.07
2017-10-01T02:58:18.740Z,100857.94
2017-10-01T02:59:24.168Z,100859.42
2017-10-01T03:00:29.667Z,100866.01
2017-10-01T03:01:35.732Z,100859.40
2017-10-01T03:02:40.957Z,100865.98
2017-10-01T03:03:46.480Z,100869.24
2017-10-01T03:04:51.730Z,100870.36
2017-10-01T03:05:57.396Z,100870.82
2017-10-01T03:07:03.171Z,100870.84
2017-10-01T03:08:09.784Z,100870.51
2017-10-01T03:09:14.977Z,100874.58
2017-10-01T03:10:20.415Z,100873.28
2017-10-01T03:11:25.618Z,100872.00
2017-10-01T03:12:31.270Z,100873.09
2017-10-01T03:13:36.744Z,100873.72
2017-10-01T03:14:42.176Z,100871.37
2017-10-01T03:15:47.400Z,100868.47
2017-10-01T03:16:53.596Z,100867.16
2017-10-01T03:17:59.156Z,100870.34
2017-10-01T03:19:05.711Z,100867.81
2017-10-01T03:20:12.006Z,100865.58
2017-10-01T03:21:17.636Z,100866.44
2017-10-01T03:22:26.049Z,100869.77
2017-10-01T03:23:32.219Z,100866.12
2017-10-01T03:24:38.654Z,100870.50
2017-10-01T03:25:44.428Z,100876.45
2017-10-01T03:26:50.623Z,100872.64
2017-10-01T03:27:56.978Z,100876.28
2017-10-01T03:29:02.919Z,100875.27
2017-10-01T03:30:08.498Z,100890.20
2017-10-01T03:31:14.007Z,100886.00
2017-10-01T03:32:19.504Z,100888.92
2017-10-01T03:33:24.895Z,100894.73
2017-10-01T03:34:31.095Z,100899.08
2017-10-01T03:35:37.913Z,100900.31
2017-10-01T03:36:43.440Z,100905.39
2017-10-01T03:37:48.906Z,100909.20
2017-10-01T03:38:54.547Z,100914.73
2017-10-01T03:40:02.265Z,100915.92
2017-10-01T03:41:08.522Z,100924.33
2017-10-01T03:42:15.147Z,100924.68
2017-10-01T03:43:22.145Z,100921.08
2017-10-01T03:44:27.711Z,100926.72
2017-10-01T03:45:33.765Z,100924.89
2017-10-01T03:46:39.028Z,100929.08
2017-10-01T03:47:44.556Z,100930.67
2017-10-01T03:48:50.555Z,100930.05
2017-10-01T03:49:57.174Z,100931.61
2017-10-01T03:51:02.772Z,100928.25
2017-10-01T03:52:11.478Z,100929.14
2017-10-01T03:53:18.490Z,100928.50
2017-10-01T03:54:24.649Z,100930.91
2017-10-01T03:55:30.119Z,100924.92
2017-10-01T03:56:36.135Z,100933.52
2017-10-01T03:57:42.376Z,100930.13
2017-10-01T03:58:48.111Z,100934.99
2017-10-01T03:59:53.970Z,100932.81
2017-10-01T04:01:00.613Z,100931.93
2017-10-01T04:02:06.812Z,100933.54
2017-10-01T04:03:13.070Z,100930.00
2017-10-01T04:04:23.117Z,100936.28
2017-10-01T04:05:30.253Z,100931.02
2017-10-01T04:06:37.378Z,100934.11
2017-10-01T04:07:43.942Z,100939.64
2017-10-01T04:08:50.035Z,100934.11
2017-10-01T04:09:57.806Z,100937.79
2017-10-01T04:11:04.103Z,100944.31
2017-10-01T04:12:10.779Z,100942.73
2017-10-01T04:13:19.498Z,100939.08
2017-10-01T04:14:27.119Z,100939.40
2017-10-01T04:15:34.115Z,100944.42
2017-10-01T04:16:41.291Z,100941.87
2017-10-01T04:17:47.590Z,100938.78
2017-10-01T04:18:53.855Z,100937.55
2017-10-01T04:20:00.607Z,100941.44
2017-10-01T04:21:06.754Z,100955.06
2017-10-01T04:22:13.114Z,100946.67
2017-10-01T04:23:19.271Z,100950.14
2017-10-01T04:24:25.539Z,100955.57
2017-10-01T04:25:32.952Z,100953.27
2017-10-01T04:26:38.957Z,100954.60
2017-10-01T04:27:45.509Z,100952.27
2017-10-01T04:28:52.188Z,100955.06
2017-10-01T04:29:59.847Z,100951.22
2017-10-01T04:31:07.007Z,100949.39
2017-10-01T04:32:14.446Z,100948.61
2017-10-01T04:33:22.267Z,100948.45
2017-10-01T04:34:30.214Z,100948.54
2017-10-01T04:35:38.768Z,100952.64
2017-10-01T04:36:46.016Z,100956.31
2017-10-01T04:37:53.772Z,100960.59
2017-10-01T04:39:00.833Z,100963.16
2017-10-01T04:40:08.665Z,100962.05
2017-10-01T04:41:16.143Z,100961.11
2017-10-01T04:42:24.538Z,100964.47
2017-10-01T04:43:31.670Z,100965.38
2017-10-01T04:44:38.926Z,100963.34
2017-10-01T04:45:46.094Z,100972.50
2017-10-01T04:46:54.336Z,100970.41
2017-10-01T04:48:01.618Z,100974.92
2017-10-01T04:49:10.351Z,100974.86
2017-10-01T04:50:17.832Z,100977.11
2017-10-01T04:51:26.149Z,100975.95
2017-10-01T04:52:34.633Z,100983.10
2017-10-01T04:53:42.853Z,100980.13
2017-10-01T04:54:50.233Z,100980.03
2017-10-01T04:55:58.146Z,100980.55
2017-10-01T04:57:05.896Z,100981.31
2017-10-01T04:58:13.466Z,100983.10
2017-10-01T04:59:22.344Z,100982.17
2017-10-01T05:00:29.803Z,100978.45
2017-10-01T05:01:37.603Z,100977.41
2017-10-01T05:02:48.046Z,100986.89
2017-10-01T05:03:55.371Z,100990.28
2017-10-01T05:05:03.576Z,100985.58
2017-10-01T05:06:11.249Z,100988.83
2017-10-01T05:07:18.500Z,100993.16
2017-10-01T05:08:26.119Z,100986.16
2017-10-01T05:09:34.547Z,100990.83
2017-10-01T05:10:42.943Z,100994.28
2017-10-01T05:11:51.088Z,100988.97
2017-10-01T05:12:57.570Z,100986.67
2017-10-01T05:14:07.350Z,100995.66
2017-10-01T05:15:15.026Z,100997.12
2017-10-01T05:16:22.000Z,100996.46
2017-10-01T05:17:30.603Z,101001.59
2017-10-01T05:18:37.272Z,101003.27
2017-10-01T05:19:44.328Z,101003.16
2017-10-01T05:20:51.634Z,101002.95
2017-10-01T05:22:01.842Z,100998.30
2017-10-01T05:23:08.596Z,101005.49
2017-10-01T05:24:16.448Z,101011.83
2017-10-01T05:25:24.799Z,101007.81
2017-10-01T05:26:32.319Z,101010.67
2017-10-01T05:27:43.728Z,101016.02
2017-10-01T05:28:52.350Z,101017.36
2017-10-01T05:30:00.543Z,101020.81
2017-10-01T05:31:08.500Z,101019.91
2017-10-01T05:32:16.904Z,101019.86
2017-10-01T05:33:24.696Z,101020.89
2017-10-01T05:34:38.076Z,101023.70
2017-10-01T05:35:47.541Z,101026.00
2017-10-01T05:36:54.720Z,101033.84
2017-10-01T05:38:03.652Z,101024.98
2017-10-01T05:39:11.224Z,101028.66
2017-10-01T05:40:19.310Z,101027.75
2017-10-01T05:41:26.889Z,101028.16
2017-10-01T05:42:35.793Z,101033.53
2017-10-01T05:43:42.976Z,101034.18
2017-10-01T05:44:51.304Z,101031.16
2017-10-01T05:45:58.780Z,101028.52
2017-10-01T05:47:06.010Z,101033.81
2017-10-01T05:48:17.966Z,101032.75
2017-10-01T05:49:26.635Z,101032.55
2017-10-01T05:50:33.952Z,101032.02
2017-10-01T05:51:43.660Z,101032.27
2017-10-01T05:52:51.152Z,101037.05
2017-10-01T05:53:58.746Z,101030.81
2017-10-01T05:55:07.495Z,101039.34
2017-10-01T05:56:17.042Z,101040.11
2017-10-01T05:57:24.580Z,101044.71
2017-10-01T05:58:32.832Z,101047.86
2017-10-01T05:59:40.831Z,101048.60
2017-10-01T06:00:48.391Z,101043.40
2017-10-01T06:01:56.106Z,101046.07
2017-10-01T06:03:04.805Z,101045.64
2017-10-01T06:04:13.553Z,101050.47
2017-10-01T06:05:20.854Z,101051.76
2017-10-01T06:06:28.620Z,101047.83
2017-10-01T06:07:36.686Z,101053.63
2017-10-01T06:08:44.306Z,101054.06
2017-10-01T06:09:50.894Z,101052.94
2017-10-01T06:10:57.088Z,101060.36
2017-10-01T06:12:03.217Z,101055.43
2017-10-01T06:13:10.017Z,101058.08
2017-10-01T06:14:16.140Z,101055.23
2017-10-01T06:15:22.356Z,101054.84
2017-10-01T06:16:29.567Z,101062.39
2017-10-01T06:17:35.827Z,101059.09
2017-10-01T06:18:42.574Z,101062.17
2017-10-01T06:19:48.549Z,101061.06
2017-10-01T06:20:55.684Z,101068.03
2017-10-01T06:22:01.829Z,101065.05
2017-10-01T06:23:08.000Z,101068.30
2017-10-01T06:24:14.158Z,101066.28
2017-10-01T06:25:20.280Z,101066.92
2017-10-01T06:26:29.302Z,101066.31
2017-10-01T06:27:35.908Z,101066.94
2017-10-01T06:28:42.750Z,101071.71
2017-10-01T06:29:52.952Z,101069.33
2017-10-01T06:30:59.592Z,101066.67
2017-10-01T06:32:05.825Z,101074.37
2017-10-01T06:33:12.707Z,101070.45
2017-10-01T06:34:19.253Z,101067.72
2017-10-01T06:35:25.925Z,101069.41
2017-10-01T06:36:32.100Z,101075.13
2017-10-01T06:37:38.258Z,101083.98
2017-10-01T06:38:44.555Z,101080.68
2017-10-01T06:39:50.787Z,101081.66
2017-10-01T06:40:56.966Z,101078.81
2017-10-01T06:42:03.283Z,101087.73
2017-10-01T06:43:09.614Z,101088.48
2017-10-01T06:44:15.875Z,101091.39
2017-10-01T06:45:22.135Z,101092.25
2017-10-01T06:46:41.624Z,101087.70
2017-10-01T06:47:47.842Z,101092.70
2017-10-01T06:48:54.016Z,101095.53
2017-10-01T06:51:39.459Z,101089.93
2017-10-01T06:52:58.657Z,101094.41
2017-10-01T06:54:20.719Z,101090.20
2017-10-01T06:55:31.542Z,101086.41
2017-10-01T07:00:03.641Z,101102.34
2017-10-01T07:01:10.763Z,101100.95
2017-10-01T07:02:18.584Z,101098.42
2017-10-01T07:03:26.864Z,101103.27
2017-10-01T07:05:05.710Z,101098.88
2017-10-01T07:06:18.171Z,101106.02
2017-10-01T07:07:23.939Z,101103.78
2017-10-01T07:08:30.138Z,101104.33
2017-10-01T07:09:43.698Z,101102.80
2017-10-01T07:10:56.069Z,101098.09
2017-10-01T07:12:02.653Z,101099.93
2017-10-01T07:13:08.980Z,101106.58
2017-10-01T07:14:15.028Z,101108.58
2017-10-01T07:15:21.184Z,101111.74
2017-10-01T07:16:28.593Z,101106.39
2017-10-01T07:17:35.513Z,101110.02
2017-10-01T07:18:42.397Z,101114.54
2017-10-01T07:19:48.583Z,101117.36
2017-10-01T07:20:54.804Z,101116.52
2017-10-01T07:22:04.691Z,101126.06
2017-10-01T07:23:11.043Z,101113.84
2017-10-01T07:24:17.273Z,101119.04
2017-10-01T07:25:23.666Z,101121.28
2017-10-01T07:26:30.019Z,101120.40
2017-10-01T07:27:35.831Z,101121.30
2017-10-01T07:28:42.295Z,101118.84
2017-10-01T07:29:48.846Z,101120.73
2017-10-01T07:30:55.742Z,101122.81
2017-10-01T07:32:01.918Z,101125.91
2017-10-01T07:33:08.476Z,101128.34
2017-10-01T07:34:14.732Z,101132.82
2017-10-01T07:35:20.916Z,101130.52
2017-10-01T07:36:27.517Z,101132.53
2017-10-01T07:37:34.304Z,101129.66
2017-10-01T07:38:40.594Z,101131.91
2017-10-01T07:39:47.543Z,101138.00
2017-10-01T07:40:53.357Z,101141.64
2017-10-01T07:41:59.532Z,101136.19
2017-10-01T07:43:05.650Z,101140.64
2017-10-01T07:44:12.103Z,101146.74
2017-10-01T07:45:17.633Z,101146.26
2017-10-01T07:46:23.054Z,101143.89
2017-10-01T07:47:30.073Z,101151.00
2017-10-01T07:48:36.286Z,101148.52
2017-10-01T07:49:42.548Z,101149.92
2017-10-01T07:50:48.984Z,101152.84
2017-10-01T07:51:55.107Z,101145.91
2017-10-01T07:53:01.386Z,101158.11
2017-10-01T07:54:08.307Z,101156.28
2017-10-01T07:55:15.337Z,101158.81
2017-10-01T07:56:21.938Z,101156.99
2017-10-01T07:57:28.948Z,101163.64
2017-10-01T07:58:35.294Z,101159.66
2017-10-01T07:59:43.399Z,101160.66
2017-10-01T08:00:49.612Z,101155.66
2017-10-01T08:01:55.624Z,101162.06
2017-10-01T08:03:01.875Z,101166.94
2017-10-01T08:04:09.105Z,101164.02
2017-10-01T08:05:15.376Z,101161.63
2017-10-01T08:06:21.591Z,101169.14
2017-10-01T08:07:28.081Z,101166.80
2017-10-01T08:08:34.194Z,101164.11
2017-10-01T08:09:39.693Z,101169.88
2017-10-01T08:10:49.686Z,101169.64
2017-10-01T08:11:55.951Z,101169.97
2017-10-01T08:13:01.936Z,101177.19
2017-10-01T08:14:08.308Z,101164.78
2017-10-01T08:15:14.555Z,101164.16
2017-10-01T08:16:20.770Z,101165.45
2017-10-01T08:17:26.939Z,101157.92
2017-10-01T08:18:33.160Z,101167.39
2017-10-01T08:19:39.659Z,101163.61
2017-10-01T08:20:46.379Z,101162.41
2017-10-01T08:21:52.173Z,101168.47
2017-10-01T08:22:58.388Z,101163.66
2017-10-01T08:24:04.505Z,101170.97
2017-10-01T08:25:10.713Z,101168.92
2017-10-01T08:26:17.527Z,101173.77
2017-10-01T08:27:25.480Z,101169.23
2017-10-01T08:28:31.700Z,101173.45
2017-10-01T08:29:38.424Z,101176.37
2017-10-01T08:30:44.624Z,101176.34
2017-10-01T08:31:50.893Z,101175.16
2017-10-01T08:32:57.072Z,101176.57
2017-10-01T08:34:03.277Z,101180.66
2017-10-01T08:35:09.458Z,101176.19
2017-10-01T08:36:15.692Z,101185.50
2017-10-01T08:37:24.295Z,101184.23
2017-10-01T08:38:30.810Z,101186.41
2017-10-01T08:39:37.430Z,101185.19
2017-10-01T08:40:43.726Z,101180.58
2017-10-01T08:41:49.938Z,101184.52
2017-10-01T08:42:56.479Z,101189.56
2017-10-01T08:44:02.762Z,101185.38
2017-10-01T08:45:08.924Z,101180.78
2017-10-01T08:46:14.322Z,101187.34
2017-10-01T08:47:20.636Z,101187.97
2017-10-01T08:48:29.147Z,101181.45
2017-10-01T08:49:36.231Z,101184.46
2017-10-01T08:50:42.727Z,101184.72
2017-10-01T08:51:49.570Z,101188.55
2017-10-01T08:52:56.141Z,101191.05
2017-10-01T08:54:02.315Z,101192.38
2017-10-01T08:55:08.501Z,101198.12
2017-10-01T08:56:15.291Z,101189.70
2017-10-01T08:57:21.949Z,101197.46
2017-10-01T08:58:28.240Z,101196.17
2017-10-01T08:59:35.625Z,101188.27
2017-10-01T09:00:41.838Z,101201.04
2017-10-01T09:01:48.021Z,101193.88
2017-10-01T09:02:54.551Z,101189.52
2017-10-01T09:04:03.091Z,101195.56
2017-10-01T09:05:09.334Z,101188.51
2017-10-01T09:06:16.207Z,101195.47
2017-10-01T09:07:22.419Z,101192.41
2017-10-01T09:08:28.837Z,101190.86
2017-10-01T09:09:35.511Z,101194.53
2017-10-01T09:10:42.985Z,101201.58
2017-10-01T09:11:50.173Z,101202.31
2017-10-01T09:12:58.515Z,101196.99
2017-10-01T09:14:05.072Z,101202.01
2017-10-01T09:15:15.644Z,101195.42
2017-10-01T09:16:21.174Z,101204.12
2017-10-01T09:17:27.412Z,101207.34
2017-10-01T09:18:35.691Z,101202.41
2017-10-01T09:19:41.556Z,101205.47
2017-10-01T09:20:48.480Z,101206.75
2017-10-01T09:21:55.805Z,101206.02
2017-10-01T09:23:02.818Z,101202.08
2017-10-01T09:24:08.806Z,101210.42
2017-10-01T09:25:15.078Z,101209.94
2017-10-01T09:26:21.036Z,101205.91
2017-10-01T09:27:28.746Z,101198.35
2017-10-01T09:28:35.100Z,101206.45
2017-10-01T09:29:41.243Z,101205.89
2017-10-01T09:30:48.193Z,101210.06
2017-10-01T09:31:55.474Z,101208.92
2017-10-01T09:33:04.544Z,101202.44
2017-10-01T09:34:11.454Z,101210.27
2017-10-01T09:35:17.511Z,101211.86
2017-10-01T09:36:25.124Z,101212.98
2017-10-01T09:37:32.679Z,101215.64
2017-10-01T09:38:41.560Z,101212.20
2017-10-01T09:39:48.564Z,101207.80
2017-10-01T09:40:55.605Z,101206.36
2017-10-01T09:42:02.617Z,101205.27
2017-10-01T09:43:08.784Z,101203.83
2017-10-01T09:44:14.976Z,101198.20
2017-10-01T09:45:25.902Z,101197.73
2017-10-01T09:46:32.199Z,101195.72
2017-10-01T09:47:38.360Z,101196.41
2017-10-01T09:48:44.617Z,101189.92
2017-10-01T09:49:50.732Z,101187.02
2017-10-01T09:50:57.633Z,101194.23
2017-10-01T09:52:03.846Z,101201.03
2017-10-01T09:53:10.315Z,101190.61
2017-10-01T09:54:16.496Z,101201.12
2017-10-01T09:55:22.692Z,101196.58
2017-10-01T09:56:29.783Z,101194.01
2017-10-01T09:57:36.597Z,101194.82
2017-10-01T09:58:43.006Z,101191.58
2017-10-01T09:59:49.192Z,101191.03
2017-10-01T10:00:55.997Z,101194.52
2017-10-01T10:02:02.238Z,101190.78
2017-10-01T10:03:08.508Z,101196.32
2017-10-01T10:04:14.656Z,101193.08
2017-10-01T10:05:20.833Z,101194.84
2017-10-01T10:06:26.940Z,101194.61
2017-10-01T10:07:33.042Z,101196.98
2017-10-01T10:08:39.164Z,101202.98
2017-10-01T10:09:45.389Z,101200.09
2017-10-01T10:10:51.575Z,101201.02
2017-10-01T10:11:57.776Z,101201.08
2017-10-01T10:13:04.564Z,101204.66
2017-10-01T10:14:10.755Z,101205.25
2017-10-01T10:15:16.932Z,101206.37
2017-10-01T10:16:23.138Z,101203.53
2017-10-01T10:17:29.338Z,101210.47
2017-10-01T10:18:35.554Z,101204.19
2017-10-01T10:19:41.888Z,101207.73
2017-10-01T10:20:48.324Z,101205.74
2017-10-01T10:21:55.072Z,101204.44
2017-10-01T10:23:01.894Z,101202.97
2017-10-01T10:24:08.039Z,101203.95
2017-10-01T10:25:14.407Z,101199.57
2017-10-01T10:26:20.562Z,101204.19
2017-10-01T10:27:27.303Z,101210.72
2017-10-01T10:28:33.450Z,101207.45
2017-10-01T10:29:39.551Z,101203.89
2017-10-01T10:30:46.423Z,101205.70
2017-10-01T10:31:52.619Z,101207.13
2017-10-01T10:32:58.837Z,101209.55
2017-10-01T10:34:05.040Z,101208.88
2017-10-01T10:35:11.157Z,101213.20
2017-10-01T10:36:17.379Z,101216.05
2017-10-01T10:37:23.579Z,101213.22
2017-10-01T10:38:29.795Z,101213.20
2017-10-01T10:39:36.184Z,101212.41
2017-10-01T10:40:42.309Z,101205.06
2017-10-01T10:41:48.335Z,101207.05
2017-10-01T10:42:54.526Z,101209.38
2017-10-01T10:44:00.727Z,101212.31
2017-10-01T10:45:06.827Z,101217.30
2017-10-01T10:46:13.063Z,101209.62
2017-10-01T10:47:19.294Z,101216.66
2017-10-01T10:48:25.508Z,101211.72
2017-10-01T10:49:32.128Z,101216.56
2017-10-01T10:50:38.283Z,101210.17
2017-10-01T10:51:44.398Z,101212.26
2017-10-01T10:52:50.520Z,101210.78
2017-10-01T10:53:56.712Z,101210.03
2017-10-01T10:55:02.981Z,101207.53
2017-10-01T10:56:09.136Z,101208.72
2017-10-01T10:57:15.263Z,101204.81
2017-10-01T10:58:21.455Z,101201.00
2017-10-01T10:59:27.732Z,101200.88
2017-10-01T11:00:33.886Z,101209.77
2017-10-01T11:01:40.018Z,101204.51
2017-10-01T11:02:46.274Z,101205.25
2017-10-01T11:03:52.499Z,101203.23
2017-10-01T11:04:58.713Z,101204.88
2017-10-01T11:06:04.959Z,101199.95
2017-10-01T11:07:11.599Z,101201.70
2017-10-01T11:08:17.798Z,101198.53
2017-10-01T11:09:23.969Z,101196.23
2017-10-01T11:10:30.168Z,101207.25
2017-10-01T11:11:36.464Z,101202.48
2017-10-01T11:12:42.580Z,101205.30
2017-10-01T11:13:48.808Z,101203.42
2017-10-01T11:14:55.003Z,101206.37
2017-10-01T11:16:01.085Z,101207.13
2017-10-01T11:17:07.690Z,101200.86
2017-10-01T11:18:13.844Z,101200.00
2017-10-01T11:19:20.002Z,101195.23
2017-10-01T11:20:26.146Z,101189.85
2017-10-01T11:21:32.264Z,101195.91
2017-10-01T11:22:38.465Z,101196.31
2017-10-01T11:23:44.613Z,101198.80
2017-10-01T11:24:50.835Z,101199.85
2017-10-01T11:25:56.996Z,101201.62
2017-10-01T11:27:03.208Z,101199.72
2017-10-01T11:28:11.349Z,101203.46
2017-10-01T11:29:17.473Z,101201.07
2017-10-01T11:30:23.725Z,101203.27
2017-10-01T11:31:29.995Z,101205.70
2017-10-01T11:32:37.208Z,101202.72
2017-10-01T11:33:43.275Z,101202.60
2017-10-01T11:34:49.440Z,101192.14
2017-10-01T11:35:55.561Z,101189.44
2017-10-01T11:37:01.768Z,101194.97
2017-10-01T11:38:07.860Z,101187.95
2017-10-01T11:39:13.964Z,101195.15
2017-10-01T11:40:20.081Z,101190.02
2017-10-01T11:41:26.307Z,101188.98
2017-10-01T11:42:32.304Z,101189.95
2017-10-01T11:43:38.386Z,101186.72
2017-10-01T11:44:44.509Z,101183.19
2017-10-01T11:45:50.766Z,101175.98
2017-10-01T11:46:56.919Z,101181.25
2017-10-01T11:48:03.032Z,101178.31
2017-10-01T11:49:09.147Z,101179.23
2017-10-01T11:50:15.344Z,101176.38
2017-10-01T11:51:21.496Z,101177.14
2017-10-01T11:52:27.667Z,101182.11
2017-10-01T11:53:33.753Z,101184.98
2017-10-01T11:54:39.884Z,101190.23
2017-10-01T11:55:46.085Z,101184.25
2017-10-01T11:56:52.234Z,101184.66
2017-10-01T11:57:58.419Z,101180.38
2017-10-01T11:59:04.838Z,101178.52
2017-10-01T12:00:11.706Z,101170.20
2017-10-01T12:01:18.664Z,101176.63
2017-10-01T12:02:25.960Z,101180.44
2017-10-01T12:03:32.108Z,101183.98
2017-10-01T12:04:40.847Z,101186.30
2017-10-01T12:05:47.103Z,101184.63
2017-10-01T12:06:53.238Z,101180.66
2017-10-01T12:08:00.085Z,101188.11
2017-10-01T12:09:07.697Z,101179.86
2017-10-01T12:10:13.892Z,101180.25
2017-10-01T12:11:20.083Z,101186.07
2017-10-01T12:12:26.437Z,101179.81
2017-10-01T12:13:32.595Z,101179.05
2017-10-01T12:14:38.704Z,101178.33
2017-10-01T12:15:44.611Z,101182.04
2017-10-01T12:16:52.180Z,101187.72
2017-10-01T12:17:58.520Z,101181.28
2017-10-01T12:19:04.670Z,101189.07
2017-10-01T12:20:10.783Z,101182.98
2017-10-01T12:21:16.897Z,101178.39
2017-10-01T12:22:23.003Z,101186.63
2017-10-01T12:23:29.340Z,101185.70
2017-10-01T12:24:35.690Z,101178.63
2017-10-01T12:25:42.280Z,101174.05
2017-10-01T12:26:48.542Z,101177.66
2017-10-01T12:27:55.155Z,101180.31
2017-10-01T12:29:01.377Z,101178.48
2017-10-01T12:30:07.480Z,101182.59
2017-10-01T12:31:14.344Z,101183.69
2017-10-01T12:32:22.209Z,101179.95
2017-10-01T12:33:29.262Z,101183.58
2017-10-01T12:34:36.436Z,101180.35
2017-10-01T12:35:43.409Z,101173.57
2017-10-01T12:36:50.611Z,101181.42
2017-10-01T12:37:56.818Z,101178.20
2017-10-01T12:39:03.043Z,101178.09
2017-10-01T12:40:09.061Z,101178.75
2017-10-01T12:41:15.525Z,101175.25
2017-10-01T12:42:22.905Z,101178.14
2017-10-01T12:43:30.744Z,101176.70
2017-10-01T12:44:38.548Z,101182.77
2017-10-01T12:45:44.708Z,101183.55
2017-10-01T12:46:51.844Z,101186.63